Soldotna, AK

7:51 PM AKDT on May 03, 2015 (GMT -0800)
Anchorage | | Change Station
CLOSE
Current Station
Airport
Location: Anchorage,
Elevation: 144 ft
Nearby Weather Stations

Elev 144 ft 61.17 °N, 150.03 °W | Updated 58 minutes ago

Mostly Cloudy
Mostly Cloudy
50 °F
Feels Like 50 °F
N
8
Wind Variable Wind from WSW

Today
High -- | Low -- °F
--% Chance of Precip.
Yesterday
High -- | Low -- °F
Precip. -- in
5:54 AM 10:10 PM
Full, 100% visible
Pressure 30.08 in
Visibility 10.0 miles
Clouds Few 5000 ft
Scattered Clouds 9000 ft
Mostly Cloudy 20000 ft
Dew Point 31 °F
Humidity 48%
Rainfall 0.00 in
Snow Depth Not available.
UV 1 out of 12
Pollen Not available.
Air Quality Not available.
Flu Activity Sporadic
METAR PANC 040253Z 25007KT 10SM FEW050 SCT090 BKN200 10/M01 A3008 RMK AO2 SLP185 VIRGA DSNT NW-N T01001006 56011

More Conditions Fewer Conditions

Pressure 30.08 in
Visibility 10.0 miles
Clouds Few 5000 ft
Scattered Clouds 9000 ft
Mostly Cloudy 20000 ft
Dew Point 31 °F
Humidity 48%
Rainfall 0.00 in
Snow Depth Not available.
UV 1 out of 12
Pollen Not available.
Air Quality Not available.
Flu Activity Sporadic
METAR PANC 040253Z 25007KT 10SM FEW050 SCT090 BKN200 10/M01 A3008 RMK AO2 SLP185 VIRGA DSNT NW-N T01001006 56011

More Conditions Fewer Conditions

10-Day Weather Forecast

Almanac

Astronomy

May. 03, 2015 Rise Set
Actual Time
Civil Twilight
Nautical Twilight
Astronomical Twilight
Moon
Length of Visible Light
Length of Day
Tomorrow will be .
, % of the Moon is Illuminated

Today's Extremes

State Highs State Lows

Community

WunderPhotos

Upload Photos

1,818,497 photos uploaded!

WunderBlogs® & News

Nearby

Air Quality

  Air Quality AQ Index Pollutant
Not available.

Snow Depth

Station Depth Elevation

Earthquake Activity

City Distance Mag. Time & Date
Minimum magnitude displayed is 2.5.

Coastal Water Temperatures

Place Temperature

Stations

Nearby Weather Stations

Station Location Temp. Windchill Dew Point Humidity Wind Precip. Elev Updated Type